sensor_id;sensor_type;location;lat;lon;timestamp;temperature;humidity
7234;DHT22;3658;47.992;10.158;2023-07-13T00:00:24;25.30;59.50
7234;DHT22;3658;47.992;10.158;2023-07-13T00:02:51;25.30;59.50
7234;DHT22;3658;47.992;10.158;2023-07-13T00:05:19;25.30;59.50
7234;DHT22;3658;47.992;10.158;2023-07-13T00:07:45;25.30;59.40
7234;DHT22;3658;47.992;10.158;2023-07-13T00:10:15;25.30;59.40
7234;DHT22;3658;47.992;10.158;2023-07-13T00:12:42;25.30;59.50
7234;DHT22;3658;47.992;10.158;2023-07-13T00:15:14;25.30;59.40
7234;DHT22;3658;47.992;10.158;2023-07-13T00:17:42;25.30;59.40
7234;DHT22;3658;47.992;10.158;2023-07-13T00:20:10;25.30;59.40
7234;DHT22;3658;47.992;10.158;2023-07-13T00:22:38;25.30;59.40
7234;DHT22;3658;47.992;10.158;2023-07-13T00:25:05;25.30;59.40
7234;DHT22;3658;47.992;10.158;2023-07-13T00:27:33;25.30;59.40
7234;DHT22;3658;47.992;10.158;2023-07-13T00:30:00;25.30;59.30
7234;DHT22;3658;47.992;10.158;2023-07-13T00:32:28;25.30;59.30
7234;DHT22;3658;47.992;10.158;2023-07-13T00:34:56;25.30;59.30
7234;DHT22;3658;47.992;10.158;2023-07-13T00:37:23;25.30;59.30
7234;DHT22;3658;47.992;10.158;2023-07-13T00:39:50;25.30;59.30
7234;DHT22;3658;47.992;10.158;2023-07-13T00:42:17;25.30;59.30
7234;DHT22;3658;47.992;10.158;2023-07-13T00:45:07;25.30;59.90
7234;DHT22;3658;47.992;10.158;2023-07-13T00:47:53;25.30;59.20
7234;DHT22;3658;47.992;10.158;2023-07-13T00:50:22;25.20;59.80
7234;DHT22;3658;47.992;10.158;2023-07-13T00:52:52;25.30;59.20
7234;DHT22;3658;47.992;10.158;2023-07-13T00:55:21;25.20;59.20
7234;DHT22;3658;47.992;10.158;2023-07-13T00:57:48;25.30;59.20
7234;DHT22;3658;47.992;10.158;2023-07-13T01:00:17;25.30;59.20
7234;DHT22;3658;47.992;10.158;2023-07-13T01:02:48;25.20;59.10
7234;DHT22;3658;47.992;10.158;2023-07-13T01:05:18;25.30;59.20
7234;DHT22;3658;47.992;10.158;2023-07-13T01:07:46;25.20;59.10
7234;DHT22;3658;47.992;10.158;2023-07-13T01:10:14;25.30;59.20
7234;DHT22;3658;47.992;10.158;2023-07-13T01:12:41;25.20;59.10
7234;DHT22;3658;47.992;10.158;2023-07-13T01:15:37;25.20;59.00
7234;DHT22;3658;47.992;10.158;2023-07-13T01:18:05;25.20;59.00
7234;DHT22;3658;47.992;10.158;2023-07-13T01:20:33;25.20;59.10
7234;DHT22;3658;47.992;10.158;2023-07-13T01:23:04;25.20;59.00
7234;DHT22;3658;47.992;10.158;2023-07-13T01:25:32;25.20;59.00
7234;DHT22;3658;47.992;10.158;2023-07-13T01:27:59;25.20;59.00
7234;DHT22;3658;47.992;10.158;2023-07-13T01:30:25;25.20;59.00
7234;DHT22;3658;47.992;10.158;2023-07-13T01:32:52;25.20;59.00
7234;DHT22;3658;47.992;10.158;2023-07-13T01:35:19;25.20;59.00
7234;DHT22;3658;47.992;10.158;2023-07-13T01:37:46;25.20;59.00
7234;DHT22;3658;47.992;10.158;2023-07-13T01:40:14;25.20;58.90
7234;DHT22;3658;47.992;10.158;2023-07-13T01:42:41;25.20;59.00
7234;DHT22;3658;47.992;10.158;2023-07-13T01:45:08;25.20;59.00
7234;DHT22;3658;47.992;10.158;2023-07-13T01:47:35;25.20;59.00
7234;DHT22;3658;47.992;10.158;2023-07-13T01:50:02;25.20;59.00
7234;DHT22;3658;47.992;10.158;2023-07-13T01:52:28;25.20;58.90
7234;DHT22;3658;47.992;10.158;2023-07-13T01:54:55;25.20;58.90
7234;DHT22;3658;47.992;10.158;2023-07-13T01:57:23;25.20;58.90
7234;DHT22;3658;47.992;10.158;2023-07-13T01:59:50;25.20;58.90
7234;DHT22;3658;47.992;10.158;2023-07-13T02:02:17;25.20;58.90
7234;DHT22;3658;47.992;10.158;2023-07-13T02:04:43;25.20;58.90
7234;DHT22;3658;47.992;10.158;2023-07-13T02:07:10;25.20;58.90
7234;DHT22;3658;47.992;10.158;2023-07-13T02:09:37;25.20;58.90
7234;DHT22;3658;47.992;10.158;2023-07-13T02:12:04;25.20;58.90
7234;DHT22;3658;47.992;10.158;2023-07-13T02:14:33;25.20;58.90
7234;DHT22;3658;47.992;10.158;2023-07-13T02:16:59;25.20;58.80
7234;DHT22;3658;47.992;10.158;2023-07-13T02:19:26;25.20;58.80
7234;DHT22;3658;47.992;10.158;2023-07-13T02:21:53;25.20;58.80
7234;DHT22;3658;47.992;10.158;2023-07-13T02:24:20;25.20;58.80
7234;DHT22;3658;47.992;10.158;2023-07-13T02:26:46;25.20;58.80
7234;DHT22;3658;47.992;10.158;2023-07-13T02:29:13;25.20;58.80
7234;DHT22;3658;47.992;10.158;2023-07-13T02:31:41;25.20;58.80
7234;DHT22;3658;47.992;10.158;2023-07-13T02:34:08;25.20;58.80
7234;DHT22;3658;47.992;10.158;2023-07-13T02:36:35;25.20;58.80
7234;DHT22;3658;47.992;10.158;2023-07-13T02:39:04;25.20;58.80
7234;DHT22;3658;47.992;10.158;2023-07-13T02:41:31;25.20;58.80
7234;DHT22;3658;47.992;10.158;2023-07-13T02:43:59;25.20;58.80
7234;DHT22;3658;47.992;10.158;2023-07-13T02:46:29;25.20;58.80
7234;DHT22;3658;47.992;10.158;2023-07-13T02:48:57;25.20;58.80
7234;DHT22;3658;47.992;10.158;2023-07-13T02:51:24;25.20;58.80
7234;DHT22;3658;47.992;10.158;2023-07-13T02:53:50;25.20;58.80
7234;DHT22;3658;47.992;10.158;2023-07-13T02:56:18;25.20;58.70
7234;DHT22;3658;47.992;10.158;2023-07-13T02:58:45;25.20;58.80
7234;DHT22;3658;47.992;10.158;2023-07-13T03:01:12;25.20;58.80
7234;DHT22;3658;47.992;10.158;2023-07-13T03:03:44;25.20;58.70
7234;DHT22;3658;47.992;10.158;2023-07-13T03:06:13;25.20;58.70
7234;DHT22;3658;47.992;10.158;2023-07-13T03:08:40;25.20;58.70
7234;DHT22;3658;47.992;10.158;2023-07-13T03:11:09;25.20;58.80
7234;DHT22;3658;47.992;10.158;2023-07-13T03:13:37;25.20;58.80
7234;DHT22;3658;47.992;10.158;2023-07-13T03:16:04;25.20;58.70
7234;DHT22;3658;47.992;10.158;2023-07-13T03:18:32;25.20;58.80
7234;DHT22;3658;47.992;10.158;2023-07-13T03:20:59;25.20;58.70
7234;DHT22;3658;47.992;10.158;2023-07-13T03:23:27;25.20;58.70
7234;DHT22;3658;47.992;10.158;2023-07-13T03:26:02;25.20;58.70
7234;DHT22;3658;47.992;10.158;2023-07-13T03:28:29;25.20;58.60
7234;DHT22;3658;47.992;10.158;2023-07-13T03:31:00;25.20;58.70
7234;DHT22;3658;47.992;10.158;2023-07-13T03:33:27;25.20;58.60
7234;DHT22;3658;47.992;10.158;2023-07-13T03:35:54;25.20;58.70
7234;DHT22;3658;47.992;10.158;2023-07-13T03:38:21;25.20;58.70
7234;DHT22;3658;47.992;10.158;2023-07-13T03:40:49;25.20;58.70
7234;DHT22;3658;47.992;10.158;2023-07-13T03:43:15;25.20;59.20
7234;DHT22;3658;47.992;10.158;2023-07-13T03:45:42;25.10;58.60
7234;DHT22;3658;47.992;10.158;2023-07-13T03:48:09;25.20;58.60
7234;DHT22;3658;47.992;10.158;2023-07-13T03:50:36;25.20;58.60
7234;DHT22;3658;47.992;10.158;2023-07-13T03:53:04;25.20;58.60
7234;DHT22;3658;47.992;10.158;2023-07-13T03:55:30;25.10;58.60
7234;DHT22;3658;47.992;10.158;2023-07-13T03:58:05;25.10;58.60
7234;DHT22;3658;47.992;10.158;2023-07-13T04:00:46;25.20;58.60
7234;DHT22;3658;47.992;10.158;2023-07-13T04:03:13;25.20;58.60
7234;DHT22;3658;47.992;10.158;2023-07-13T04:05:40;25.20;58.60
7234;DHT22;3658;47.992;10.158;2023-07-13T04:08:07;25.10;58.50
7234;DHT22;3658;47.992;10.158;2023-07-13T04:10:33;25.10;58.50
7234;DHT22;3658;47.992;10.158;2023-07-13T04:13:01;25.10;58.50
7234;DHT22;3658;47.992;10.158;2023-07-13T04:15:29;25.10;58.50
7234;DHT22;3658;47.992;10.158;2023-07-13T04:17:56;25.10;58.50
7234;DHT22;3658;47.992;10.158;2023-07-13T04:20:24;25.10;58.50
7234;DHT22;3658;47.992;10.158;2023-07-13T04:22:51;25.10;58.50
7234;DHT22;3658;47.992;10.158;2023-07-13T04:25:18;25.10;58.50
7234;DHT22;3658;47.992;10.158;2023-07-13T04:27:45;25.10;58.50
7234;DHT22;3658;47.992;10.158;2023-07-13T04:30:14;25.10;58.50
7234;DHT22;3658;47.992;10.158;2023-07-13T04:32:40;25.10;58.50
7234;DHT22;3658;47.992;10.158;2023-07-13T04:35:08;25.10;58.50
7234;DHT22;3658;47.992;10.158;2023-07-13T04:37:35;25.10;58.50
7234;DHT22;3658;47.992;10.158;2023-07-13T04:40:02;25.10;58.50
7234;DHT22;3658;47.992;10.158;2023-07-13T04:42:29;25.10;58.40
7234;DHT22;3658;47.992;10.158;2023-07-13T04:44:56;25.10;58.40
7234;DHT22;3658;47.992;10.158;2023-07-13T04:47:24;25.10;58.50
7234;DHT22;3658;47.992;10.158;2023-07-13T04:49:50;25.10;58.50
7234;DHT22;3658;47.992;10.158;2023-07-13T04:52:17;25.10;58.40
7234;DHT22;3658;47.992;10.158;2023-07-13T04:54:44;25.10;58.40
7234;DHT22;3658;47.992;10.158;2023-07-13T04:57:11;25.10;58.40
7234;DHT22;3658;47.992;10.158;2023-07-13T04:59:38;25.10;58.40
7234;DHT22;3658;47.992;10.158;2023-07-13T05:02:05;25.10;58.50
7234;DHT22;3658;47.992;10.158;2023-07-13T05:04:33;25.10;58.50
7234;DHT22;3658;47.992;10.158;2023-07-13T05:07:00;25.10;58.40
7234;DHT22;3658;47.992;10.158;2023-07-13T05:09:26;25.10;58.40
7234;DHT22;3658;47.992;10.158;2023-07-13T05:11:53;25.10;58.40
7234;DHT22;3658;47.992;10.158;2023-07-13T05:14:20;25.10;58.40
7234;DHT22;3658;47.992;10.158;2023-07-13T05:16:47;25.10;58.40
7234;DHT22;3658;47.992;10.158;2023-07-13T05:19:13;25.10;58.40
7234;DHT22;3658;47.992;10.158;2023-07-13T05:21:41;25.00;58.30
7234;DHT22;3658;47.992;10.158;2023-07-13T05:24:08;25.00;58.30
7234;DHT22;3658;47.992;10.158;2023-07-13T05:26:35;25.00;58.30
7234;DHT22;3658;47.992;10.158;2023-07-13T05:29:01;25.00;58.30
7234;DHT22;3658;47.992;10.158;2023-07-13T05:31:28;25.00;58.30
7234;DHT22;3658;47.992;10.158;2023-07-13T05:33:55;25.00;58.30
7234;DHT22;3658;47.992;10.158;2023-07-13T05:36:22;25.00;58.20
7234;DHT22;3658;47.992;10.158;2023-07-13T05:38:50;25.00;58.10
7234;DHT22;3658;47.992;10.158;2023-07-13T05:41:16;25.00;58.80
7234;DHT22;3658;47.992;10.158;2023-07-13T05:43:43;25.00;58.10
7234;DHT22;3658;47.992;10.158;2023-07-13T05:46:10;25.00;58.10
7234;DHT22;3658;47.992;10.158;2023-07-13T05:48:37;25.00;58.10
7234;DHT22;3658;47.992;10.158;2023-07-13T05:51:03;25.00;58.00
7234;DHT22;3658;47.992;10.158;2023-07-13T05:53:30;25.00;58.00
7234;DHT22;3658;47.992;10.158;2023-07-13T05:55:58;25.00;58.00
7234;DHT22;3658;47.992;10.158;2023-07-13T05:58:25;25.00;58.00
7234;DHT22;3658;47.992;10.158;2023-07-13T06:01:00;25.00;58.00
7234;DHT22;3658;47.992;10.158;2023-07-13T06:03:27;25.00;58.00
7234;DHT22;3658;47.992;10.158;2023-07-13T06:05:54;25.00;57.80
7234;DHT22;3658;47.992;10.158;2023-07-13T06:08:21;24.90;57.70
7234;DHT22;3658;47.992;10.158;2023-07-13T06:10:47;24.90;57.70
7234;DHT22;3658;47.992;10.158;2023-07-13T06:13:15;24.90;57.70
7234;DHT22;3658;47.992;10.158;2023-07-13T06:15:42;24.90;57.60
7234;DHT22;3658;47.992;10.158;2023-07-13T06:18:09;24.90;57.60
7234;DHT22;3658;47.992;10.158;2023-07-13T06:20:35;24.90;57.50
7234;DHT22;3658;47.992;10.158;2023-07-13T06:23:02;24.90;57.50
7234;DHT22;3658;47.992;10.158;2023-07-13T06:25:29;25.00;57.60
7234;DHT22;3658;47.992;10.158;2023-07-13T06:27:56;24.90;57.50
7234;DHT22;3658;47.992;10.158;2023-07-13T06:30:24;24.90;57.50
7234;DHT22;3658;47.992;10.158;2023-07-13T06:32:50;25.00;57.60
7234;DHT22;3658;47.992;10.158;2023-07-13T06:35:17;25.00;57.60
7234;DHT22;3658;47.992;10.158;2023-07-13T06:37:44;25.00;57.60
7234;DHT22;3658;47.992;10.158;2023-07-13T06:40:12;25.00;57.70
7234;DHT22;3658;47.992;10.158;2023-07-13T06:42:39;25.00;57.70
7234;DHT22;3658;47.992;10.158;2023-07-13T06:45:06;25.00;57.70
7234;DHT22;3658;47.992;10.158;2023-07-13T06:47:34;25.00;57.70
7234;DHT22;3658;47.992;10.158;2023-07-13T06:50:01;25.00;57.70
7234;DHT22;3658;47.992;10.158;2023-07-13T06:52:28;25.00;57.70
7234;DHT22;3658;47.992;10.158;2023-07-13T06:54:55;25.00;57.80
7234;DHT22;3658;47.992;10.158;2023-07-13T06:57:21;25.00;57.70
7234;DHT22;3658;47.992;10.158;2023-07-13T06:59:48;25.00;57.80
7234;DHT22;3658;47.992;10.158;2023-07-13T07:02:15;25.00;57.80
7234;DHT22;3658;47.992;10.158;2023-07-13T07:04:43;25.00;57.80
7234;DHT22;3658;47.992;10.158;2023-07-13T07:07:10;25.00;57.80
7234;DHT22;3658;47.992;10.158;2023-07-13T07:09:36;25.00;57.80
7234;DHT22;3658;47.992;10.158;2023-07-13T07:12:04;25.00;57.90
7234;DHT22;3658;47.992;10.158;2023-07-13T07:14:31;25.00;57.80
7234;DHT22;3658;47.992;10.158;2023-07-13T07:16:59;25.00;57.90
7234;DHT22;3658;47.992;10.158;2023-07-13T07:19:27;25.00;57.90
7234;DHT22;3658;47.992;10.158;2023-07-13T07:21:55;25.00;57.90
7234;DHT22;3658;47.992;10.158;2023-07-13T07:24:22;25.00;57.90
7234;DHT22;3658;47.992;10.158;2023-07-13T07:26:48;25.00;57.90
7234;DHT22;3658;47.992;10.158;2023-07-13T07:29:15;25.00;57.90
7234;DHT22;3658;47.992;10.158;2023-07-13T07:31:42;25.00;57.90
7234;DHT22;3658;47.992;10.158;2023-07-13T07:34:09;25.00;58.00
7234;DHT22;3658;47.992;10.158;2023-07-13T07:36:35;25.00;58.00
7234;DHT22;3658;47.992;10.158;2023-07-13T07:39:03;25.00;58.30
7234;DHT22;3658;47.992;10.158;2023-07-13T07:41:31;25.00;58.00
7234;DHT22;3658;47.992;10.158;2023-07-13T07:43:58;25.00;58.00
7234;DHT22;3658;47.992;10.158;2023-07-13T07:46:25;25.00;58.00
7234;DHT22;3658;47.992;10.158;2023-07-13T07:48:52;25.00;58.00
7234;DHT22;3658;47.992;10.158;2023-07-13T07:51:18;25.00;58.00
7234;DHT22;3658;47.992;10.158;2023-07-13T07:53:45;25.00;58.10
7234;DHT22;3658;47.992;10.158;2023-07-13T07:56:13;25.00;58.10
7234;DHT22;3658;47.992;10.158;2023-07-13T07:58:41;25.00;58.10
7234;DHT22;3658;47.992;10.158;2023-07-13T08:01:08;25.00;58.10
7234;DHT22;3658;47.992;10.158;2023-07-13T08:03:35;25.00;58.20
7234;DHT22;3658;47.992;10.158;2023-07-13T08:06:02;25.00;58.10
7234;DHT22;3658;47.992;10.158;2023-07-13T08:08:29;25.00;58.20
7234;DHT22;3658;47.992;10.158;2023-07-13T08:10:55;25.00;58.20
7234;DHT22;3658;47.992;10.158;2023-07-13T08:13:23;25.00;58.20
7234;DHT22;3658;47.992;10.158;2023-07-13T08:15:50;25.00;58.20
7234;DHT22;3658;47.992;10.158;2023-07-13T08:18:17;25.00;58.20
7234;DHT22;3658;47.992;10.158;2023-07-13T08:20:44;25.00;58.20
7234;DHT22;3658;47.992;10.158;2023-07-13T08:23:11;25.00;58.20
7234;DHT22;3658;47.992;10.158;2023-07-13T08:25:37;25.00;58.20
7234;DHT22;3658;47.992;10.158;2023-07-13T08:28:04;25.00;58.30
7234;DHT22;3658;47.992;10.158;2023-07-13T08:30:32;25.00;58.30
7234;DHT22;3658;47.992;10.158;2023-07-13T08:32:59;25.00;58.30
7234;DHT22;3658;47.992;10.158;2023-07-13T08:35:26;25.00;58.20
7234;DHT22;3658;47.992;10.158;2023-07-13T08:37:52;25.00;58.30
7234;DHT22;3658;47.992;10.158;2023-07-13T08:40:23;25.00;58.30
7234;DHT22;3658;47.992;10.158;2023-07-13T08:42:54;25.00;58.30
7234;DHT22;3658;47.992;10.158;2023-07-13T08:45:25;25.00;58.30
7234;DHT22;3658;47.992;10.158;2023-07-13T08:48:01;25.00;58.30
7234;DHT22;3658;47.992;10.158;2023-07-13T08:50:32;25.00;58.30
7234;DHT22;3658;47.992;10.158;2023-07-13T08:53:00;25.00;58.40
7234;DHT22;3658;47.992;10.158;2023-07-13T08:55:31;25.00;58.40
7234;DHT22;3658;47.992;10.158;2023-07-13T08:58:05;25.00;58.40
7234;DHT22;3658;47.992;10.158;2023-07-13T09:00:41;25.00;58.40
7234;DHT22;3658;47.992;10.158;2023-07-13T09:03:19;25.00;58.40
7234;DHT22;3658;47.992;10.158;2023-07-13T09:05:51;25.00;58.40
7234;DHT22;3658;47.992;10.158;2023-07-13T09:08:35;25.00;58.40
7234;DHT22;3658;47.992;10.158;2023-07-13T09:11:11;25.00;58.50
7234;DHT22;3658;47.992;10.158;2023-07-13T09:13:48;25.00;58.40
7234;DHT22;3658;47.992;10.158;2023-07-13T09:16:17;25.00;58.40
7234;DHT22;3658;47.992;10.158;2023-07-13T09:18:48;25.00;58.40
7234;DHT22;3658;47.992;10.158;2023-07-13T09:21:18;25.00;58.50
7234;DHT22;3658;47.992;10.158;2023-07-13T09:23:47;25.00;58.40
7234;DHT22;3658;47.992;10.158;2023-07-13T09:26:18;25.00;58.40
7234;DHT22;3658;47.992;10.158;2023-07-13T09:28:49;25.00;58.40
7234;DHT22;3658;47.992;10.158;2023-07-13T09:31:23;25.00;58.40
7234;DHT22;3658;47.992;10.158;2023-07-13T09:33:52;25.00;58.50
7234;DHT22;3658;47.992;10.158;2023-07-13T09:36:22;25.00;58.40
7234;DHT22;3658;47.992;10.158;2023-07-13T09:38:58;25.00;58.40
7234;DHT22;3658;47.992;10.158;2023-07-13T09:41:31;25.00;58.50
7234;DHT22;3658;47.992;10.158;2023-07-13T09:44:10;25.00;58.50
7234;DHT22;3658;47.992;10.158;2023-07-13T09:46:38;25.00;58.50
7234;DHT22;3658;47.992;10.158;2023-07-13T09:49:09;25.00;58.40
7234;DHT22;3658;47.992;10.158;2023-07-13T09:51:37;25.00;58.50
7234;DHT22;3658;47.992;10.158;2023-07-13T09:54:03;25.00;58.40
7234;DHT22;3658;47.992;10.158;2023-07-13T09:56:31;25.00;58.50
7234;DHT22;3658;47.992;10.158;2023-07-13T09:58:59;25.00;58.50
7234;DHT22;3658;47.992;10.158;2023-07-13T10:01:33;25.00;58.50
7234;DHT22;3658;47.992;10.158;2023-07-13T10:04:01;25.00;58.50
7234;DHT22;3658;47.992;10.158;2023-07-13T10:06:30;25.00;58.50
7234;DHT22;3658;47.992;10.158;2023-07-13T10:08:57;25.00;58.50
7234;DHT22;3658;47.992;10.158;2023-07-13T10:11:27;25.00;58.50
7234;DHT22;3658;47.992;10.158;2023-07-13T10:13:57;25.00;58.50
7234;DHT22;3658;47.992;10.158;2023-07-13T10:16:26;25.00;58.50
7234;DHT22;3658;47.992;10.158;2023-07-13T10:18:59;25.00;58.50
7234;DHT22;3658;47.992;10.158;2023-07-13T10:21:30;25.00;58.50
7234;DHT22;3658;47.992;10.158;2023-07-13T10:24:04;25.10;58.60
7234;DHT22;3658;47.992;10.158;2023-07-13T10:26:34;25.00;58.50
7234;DHT22;3658;47.992;10.158;2023-07-13T10:29:04;25.00;58.50
7234;DHT22;3658;47.992;10.158;2023-07-13T10:31:40;25.00;58.50
7234;DHT22;3658;47.992;10.158;2023-07-13T10:34:10;25.00;58.40
7234;DHT22;3658;47.992;10.158;2023-07-13T10:36:41;25.00;58.50
7234;DHT22;3658;47.992;10.158;2023-07-13T10:39:14;25.00;58.50
7234;DHT22;3658;47.992;10.158;2023-07-13T10:41:42;25.00;58.40
7234;DHT22;3658;47.992;10.158;2023-07-13T10:44:18;25.00;58.40
7234;DHT22;3658;47.992;10.158;2023-07-13T10:46:46;25.00;58.40
7234;DHT22;3658;47.992;10.158;2023-07-13T10:49:14;25.00;58.40
7234;DHT22;3658;47.992;10.158;2023-07-13T10:51:43;25.00;58.40
7234;DHT22;3658;47.992;10.158;2023-07-13T10:54:21;25.00;58.40
7234;DHT22;3658;47.992;10.158;2023-07-13T10:56:53;25.10;58.50
7234;DHT22;3658;47.992;10.158;2023-07-13T10:59:33;25.10;58.40
7234;DHT22;3658;47.992;10.158;2023-07-13T11:02:10;25.10;58.40
7234;DHT22;3658;47.992;10.158;2023-07-13T11:04:43;25.00;58.30
7234;DHT22;3658;47.992;10.158;2023-07-13T11:07:21;25.00;58.40
7234;DHT22;3658;47.992;10.158;2023-07-13T11:09:52;25.00;58.40
7234;DHT22;3658;47.992;10.158;2023-07-13T11:15:12;25.00;58.50
7234;DHT22;3658;47.992;10.158;2023-07-13T11:17:50;25.00;58.40
7234;DHT22;3658;47.992;10.158;2023-07-13T11:20:39;25.00;58.40
7234;DHT22;3658;47.992;10.158;2023-07-13T11:23:30;25.00;58.50
7234;DHT22;3658;47.992;10.158;2023-07-13T11:25:58;25.00;58.40
7234;DHT22;3658;47.992;10.158;2023-07-13T11:28:27;25.00;58.50
7234;DHT22;3658;47.992;10.158;2023-07-13T11:31:14;25.00;58.40
7234;DHT22;3658;47.992;10.158;2023-07-13T11:33:53;25.00;58.50
7234;DHT22;3658;47.992;10.158;2023-07-13T11:36:24;25.00;58.50
7234;DHT22;3658;47.992;10.158;2023-07-13T11:39:01;25.00;58.50
7234;DHT22;3658;47.992;10.158;2023-07-13T11:41:30;25.00;58.50
7234;DHT22;3658;47.992;10.158;2023-07-13T11:44:06;25.00;58.40
7234;DHT22;3658;47.992;10.158;2023-07-13T11:46:33;25.00;58.40
7234;DHT22;3658;47.992;10.158;2023-07-13T11:49:00;25.00;58.40
7234;DHT22;3658;47.992;10.158;2023-07-13T11:51:29;25.00;58.30
7234;DHT22;3658;47.992;10.158;2023-07-13T11:54:03;25.00;58.40
7234;DHT22;3658;47.992;10.158;2023-07-13T11:56:30;25.00;58.40
7234;DHT22;3658;47.992;10.158;2023-07-13T11:59:04;25.00;58.30
7234;DHT22;3658;47.992;10.158;2023-07-13T12:01:33;25.00;58.30
7234;DHT22;3658;47.992;10.158;2023-07-13T12:04:00;25.00;58.30
7234;DHT22;3658;47.992;10.158;2023-07-13T12:06:30;25.00;58.30
7234;DHT22;3658;47.992;10.158;2023-07-13T12:08:59;25.00;58.30
7234;DHT22;3658;47.992;10.158;2023-07-13T12:11:29;25.10;58.30
7234;DHT22;3658;47.992;10.158;2023-07-13T12:13:56;25.00;58.30
7234;DHT22;3658;47.992;10.158;2023-07-13T12:16:27;25.00;58.30
7234;DHT22;3658;47.992;10.158;2023-07-13T12:18:55;25.00;58.30
7234;DHT22;3658;47.992;10.158;2023-07-13T12:21:27;25.00;58.30
7234;DHT22;3658;47.992;10.158;2023-07-13T12:23:56;25.00;58.30
7234;DHT22;3658;47.992;10.158;2023-07-13T12:26:24;25.00;58.90
7234;DHT22;3658;47.992;10.158;2023-07-13T12:28:53;25.10;58.40
7234;DHT22;3658;47.992;10.158;2023-07-13T12:31:30;25.00;58.30
7234;DHT22;3658;47.992;10.158;2023-07-13T12:33:59;25.10;58.30
7234;DHT22;3658;47.992;10.158;2023-07-13T12:36:30;25.10;58.40
7234;DHT22;3658;47.992;10.158;2023-07-13T12:39:00;25.10;58.40
7234;DHT22;3658;47.992;10.158;2023-07-13T12:41:31;25.10;58.30
7234;DHT22;3658;47.992;10.158;2023-07-13T12:43:59;25.10;58.30
7234;DHT22;3658;47.992;10.158;2023-07-13T12:46:26;25.10;58.30
7234;DHT22;3658;47.992;10.158;2023-07-13T12:48:54;25.10;58.30
7234;DHT22;3658;47.992;10.158;2023-07-13T12:51:22;25.10;58.30
7234;DHT22;3658;47.992;10.158;2023-07-13T12:53:56;25.00;58.30
7234;DHT22;3658;47.992;10.158;2023-07-13T12:56:26;25.10;58.30
7234;DHT22;3658;47.992;10.158;2023-07-13T12:58:58;25.10;58.30
7234;DHT22;3658;47.992;10.158;2023-07-13T13:01:27;25.10;58.20
7234;DHT22;3658;47.992;10.158;2023-07-13T13:03:54;25.10;58.30
7234;DHT22;3658;47.992;10.158;2023-07-13T13:06:24;25.00;58.20
7234;DHT22;3658;47.992;10.158;2023-07-13T13:08:53;25.10;58.30
7234;DHT22;3658;47.992;10.158;2023-07-13T13:11:21;25.00;58.20
7234;DHT22;3658;47.992;10.158;2023-07-13T13:13:48;25.00;58.30
7234;DHT22;3658;47.992;10.158;2023-07-13T13:16:20;25.00;58.20
7234;DHT22;3658;47.992;10.158;2023-07-13T13:18:48;25.00;58.20
7234;DHT22;3658;47.992;10.158;2023-07-13T13:21:15;25.00;58.30
7234;DHT22;3658;47.992;10.158;2023-07-13T13:23:42;25.00;58.20
7234;DHT22;3658;47.992;10.158;2023-07-13T13:26:10;25.00;58.20
7234;DHT22;3658;47.992;10.158;2023-07-13T13:28:37;25.00;58.20
7234;DHT22;3658;47.992;10.158;2023-07-13T13:31:04;25.10;58.30
7234;DHT22;3658;47.992;10.158;2023-07-13T13:33:32;25.10;58.30
7234;DHT22;3658;47.992;10.158;2023-07-13T13:35:59;25.00;58.20
7234;DHT22;3658;47.992;10.158;2023-07-13T13:38:27;25.00;58.20
7234;DHT22;3658;47.992;10.158;2023-07-13T13:40:54;25.00;58.30
7234;DHT22;3658;47.992;10.158;2023-07-13T13:43:23;25.00;58.20
7234;DHT22;3658;47.992;10.158;2023-07-13T13:45:53;25.00;58.20
7234;DHT22;3658;47.992;10.158;2023-07-13T13:48:26;25.00;58.30
7234;DHT22;3658;47.992;10.158;2023-07-13T13:50:57;25.00;58.30
7234;DHT22;3658;47.992;10.158;2023-07-13T13:53:25;25.00;58.20
7234;DHT22;3658;47.992;10.158;2023-07-13T13:55:52;25.00;58.80
7234;DHT22;3658;47.992;10.158;2023-07-13T13:58:20;25.10;58.30
7234;DHT22;3658;47.992;10.158;2023-07-13T14:00:47;25.00;58.30
7234;DHT22;3658;47.992;10.158;2023-07-13T14:03:15;25.00;58.30
7234;DHT22;3658;47.992;10.158;2023-07-13T14:05:44;25.00;58.30
7234;DHT22;3658;47.992;10.158;2023-07-13T14:08:14;25.00;58.30
7234;DHT22;3658;47.992;10.158;2023-07-13T14:10:41;25.00;58.20
7234;DHT22;3658;47.992;10.158;2023-07-13T14:13:16;25.00;58.20
7234;DHT22;3658;47.992;10.158;2023-07-13T14:15:44;25.00;58.20
7234;DHT22;3658;47.992;10.158;2023-07-13T14:18:11;25.00;58.90
7234;DHT22;3658;47.992;10.158;2023-07-13T14:20:43;25.00;58.20
7234;DHT22;3658;47.992;10.158;2023-07-13T14:23:10;25.00;58.20
7234;DHT22;3658;47.992;10.158;2023-07-13T14:25:38;25.00;58.20
7234;DHT22;3658;47.992;10.158;2023-07-13T14:28:23;25.00;58.20
7234;DHT22;3658;47.992;10.158;2023-07-13T14:30:51;25.00;58.20
7234;DHT22;3658;47.992;10.158;2023-07-13T14:33:18;25.00;58.10
7234;DHT22;3658;47.992;10.158;2023-07-13T14:35:45;25.00;58.20
7234;DHT22;3658;47.992;10.158;2023-07-13T14:38:14;25.00;58.10
7234;DHT22;3658;47.992;10.158;2023-07-13T14:40:43;25.00;58.10
7234;DHT22;3658;47.992;10.158;2023-07-13T14:43:10;25.00;58.10
7234;DHT22;3658;47.992;10.158;2023-07-13T14:45:40;25.00;58.10
7234;DHT22;3658;47.992;10.158;2023-07-13T14:48:13;25.00;58.10
7234;DHT22;3658;47.992;10.158;2023-07-13T14:50:41;25.00;58.10
7234;DHT22;3658;47.992;10.158;2023-07-13T14:53:10;25.10;58.20
7234;DHT22;3658;47.992;10.158;2023-07-13T14:55:38;25.00;58.20
7234;DHT22;3658;47.992;10.158;2023-07-13T14:58:06;25.00;58.10
7234;DHT22;3658;47.992;10.158;2023-07-13T15:00:33;25.00;58.10
7234;DHT22;3658;47.992;10.158;2023-07-13T15:03:00;25.00;58.20
7234;DHT22;3658;47.992;10.158;2023-07-13T15:05:30;25.00;58.10
7234;DHT22;3658;47.992;10.158;2023-07-13T15:07:58;25.10;58.10
7234;DHT22;3658;47.992;10.158;2023-07-13T15:10:27;25.00;58.10
7234;DHT22;3658;47.992;10.158;2023-07-13T15:12:59;25.00;58.10
7234;DHT22;3658;47.992;10.158;2023-07-13T15:15:29;25.00;58.10
7234;DHT22;3658;47.992;10.158;2023-07-13T15:17:56;25.00;58.10
7234;DHT22;3658;47.992;10.158;2023-07-13T15:20:26;25.00;58.10
7234;DHT22;3658;47.992;10.158;2023-07-13T15:22:54;25.00;58.10
7234;DHT22;3658;47.992;10.158;2023-07-13T15:25:22;25.00;58.10
7234;DHT22;3658;47.992;10.158;2023-07-13T15:27:50;25.00;58.10
7234;DHT22;3658;47.992;10.158;2023-07-13T15:30:17;25.00;58.10
7234;DHT22;3658;47.992;10.158;2023-07-13T15:32:46;25.00;58.10
7234;DHT22;3658;47.992;10.158;2023-07-13T15:35:15;25.00;58.10
7234;DHT22;3658;47.992;10.158;2023-07-13T15:37:42;25.00;58.10
7234;DHT22;3658;47.992;10.158;2023-07-13T15:40:10;25.00;58.10
7234;DHT22;3658;47.992;10.158;2023-07-13T15:42:37;25.00;58.20
7234;DHT22;3658;47.992;10.158;2023-07-13T15:45:15;25.00;58.10
7234;DHT22;3658;47.992;10.158;2023-07-13T15:47:42;25.00;58.10
7234;DHT22;3658;47.992;10.158;2023-07-13T15:50:14;25.00;58.10
7234;DHT22;3658;47.992;10.158;2023-07-13T15:52:42;25.00;58.10
7234;DHT22;3658;47.992;10.158;2023-07-13T15:55:11;25.00;58.10
7234;DHT22;3658;47.992;10.158;2023-07-13T15:57:38;25.00;58.10